createdAt,value
2023-05-18T00:00:19.717Z,97489.09
2023-05-18T00:01:22.436Z,97490.72
2023-05-18T00:02:26.819Z,97494.94
2023-05-18T00:03:30.556Z,97496.75
2023-05-18T00:04:36.128Z,97491.88
2023-05-18T00:05:38.405Z,97499.06
2023-05-18T00:06:40.414Z,97494.84
2023-05-18T00:07:44.718Z,97494.03
2023-05-18T00:08:47.302Z,97491.06
2023-05-18T00:09:49.233Z,97496.09
2023-05-18T00:10:51.191Z,97486.31
2023-05-18T00:11:53.653Z,97485.69
2023-05-18T00:12:55.780Z,97482.09
2023-05-18T00:13:57.766Z,97487.13
2023-05-18T00:14:59.632Z,97479.94
2023-05-18T00:16:01.607Z,97477.16
2023-05-18T00:17:03.748Z,97477.97
2023-05-18T00:18:05.796Z,97481.13
2023-05-18T00:19:08.220Z,97481.13
2023-05-18T00:20:10.982Z,97482.91
2023-05-18T00:21:13.605Z,97480.50
2023-05-18T00:22:19.238Z,97482.28
2023-05-18T00:23:23.972Z,97477.72
2023-05-18T00:24:25.953Z,97475.53
2023-05-18T00:25:28.099Z,97478.78
2023-05-18T00:26:30.505Z,97484.81
2023-05-18T00:27:33.337Z,97476.78
2023-05-18T00:28:35.309Z,97473.22
2023-05-18T00:29:37.242Z,97475.44
2023-05-18T00:30:39.705Z,97478.88
2023-05-18T00:31:42.478Z,97472.41
2023-05-18T00:32:44.515Z,97476.00
2023-05-18T00:33:46.501Z,97470.16
2023-05-18T00:34:48.367Z,97476.78
2023-05-18T00:35:50.266Z,97478.44
2023-05-18T00:36:52.098Z,97470.25
2023-05-18T00:37:54.071Z,97468.81
2023-05-18T00:38:55.909Z,97476.09
2023-05-18T00:39:57.875Z,97473.81
2023-05-18T00:40:59.749Z,97481.19
2023-05-18T00:42:01.642Z,97467.72
2023-05-18T00:43:03.686Z,97476.97
2023-05-18T00:44:05.613Z,97475.78
2023-05-18T00:45:07.834Z,97464.06
2023-05-18T00:46:09.806Z,97467.09
2023-05-18T00:47:11.942Z,97474.75
2023-05-18T00:48:14.006Z,97470.97
2023-05-18T00:49:16.123Z,97467.56
2023-05-18T00:50:18.366Z,97463.06
2023-05-18T00:51:20.819Z,97463.94
2023-05-18T00:52:23.026Z,97473.56
2023-05-18T00:53:25.030Z,97468.19
2023-05-18T00:54:27.053Z,97467.00
2023-05-18T00:55:29.326Z,97459.19
2023-05-18T00:56:34.656Z,97469.63
2023-05-18T00:57:37.026Z,97463.41
2023-05-18T00:58:40.272Z,97458.84
2023-05-18T00:59:43.036Z,97469.91
2023-05-18T01:00:44.984Z,97467.94
2023-05-18T01:01:47.286Z,97467.72
2023-05-18T01:02:52.005Z,97470.00
2023-05-18T01:03:56.912Z,97470.78
2023-05-18T01:05:00.951Z,97468.97
2023-05-18T01:06:06.106Z,97464.41
2023-05-18T01:07:08.190Z,97460.81
2023-05-18T01:08:10.237Z,97465.88
2023-05-18T01:09:13.770Z,97463.25
2023-05-18T01:10:17.062Z,97466.50
2023-05-18T01:11:34.206Z,97468.91
2023-05-18T01:12:36.426Z,97468.91
2023-05-18T01:13:47.043Z,97468.91
2023-05-18T01:15:04.073Z,97466.03
2023-05-18T01:16:08.414Z,97467.84
2023-05-18T01:17:22.187Z,97468.81
2023-05-18T01:18:29.526Z,97465.56
2023-05-18T01:19:40.284Z,97471.34
2023-05-18T01:20:43.043Z,97464.69
2023-05-18T01:21:57.853Z,97463.06
2023-05-18T01:23:21.082Z,97461.25
2023-05-18T01:24:26.018Z,97461.47
2023-05-18T01:25:32.455Z,97462.44
2023-05-18T01:26:37.972Z,97465.03
2023-05-18T01:27:42.870Z,97461.47
2023-05-18T01:28:46.778Z,97462.44
2023-05-18T01:29:49.090Z,97463.22
2023-05-18T01:30:51.536Z,97464.06
2023-05-18T01:31:53.569Z,97466.66
2023-05-18T01:32:55.467Z,97466.66
2023-05-18T01:33:57.354Z,97463.06
2023-05-18T01:34:59.284Z,97463.06
2023-05-18T01:36:01.493Z,97471.50
2023-05-18T01:37:03.462Z,97469.91
2023-05-18T01:38:05.477Z,97471.88
2023-05-18T01:39:07.966Z,97465.38
2023-05-18T01:40:09.956Z,97466.38
2023-05-18T01:41:23.959Z,97460.09
2023-05-18T01:42:28.445Z,97458.28
2023-05-18T01:43:37.588Z,97460.53
2023-05-18T01:44:52.219Z,97462.97
2023-05-18T01:45:56.753Z,97467.19
2023-05-18T01:47:01.953Z,97462.78
2023-05-18T01:48:04.755Z,97470.59
2023-05-18T01:49:13.872Z,97462.16
2023-05-18T01:50:19.110Z,97462.97
2023-05-18T01:51:21.794Z,97458.56
2023-05-18T01:52:27.289Z,97458.56
2023-05-18T01:53:35.824Z,97457.41
2023-05-18T01:54:39.172Z,97460.47
2023-05-18T01:55:42.047Z,97462.91
2023-05-18T01:56:45.356Z,97455.44
2023-05-18T01:57:48.727Z,97457.84
2023-05-18T01:58:50.762Z,97459.50
2023-05-18T01:59:54.987Z,97450.03
2023-05-18T02:00:56.974Z,97449.88
2023-05-18T02:02:02.362Z,97457.06
2023-05-18T02:03:04.436Z,97445.38
2023-05-18T02:04:10.632Z,97450.75
2023-05-18T02:05:13.068Z,97447.34
2023-05-18T02:06:14.952Z,97448.97
2023-05-18T02:07:16.970Z,97450.59
2023-05-18T02:08:18.990Z,97446.19
2023-05-18T02:09:22.053Z,97453.81
2023-05-18T02:10:23.997Z,97444.22
2023-05-18T02:11:26.554Z,97450.38
2023-05-18T02:12:28.528Z,97454.63
2023-05-18T02:13:30.597Z,97450.22
2023-05-18T02:14:32.823Z,97452.66
2023-05-18T02:15:34.710Z,97451.84
2023-05-18T02:16:36.692Z,97455.09
2023-05-18T02:17:39.346Z,97451.47
2023-05-18T02:18:41.411Z,97449.69
2023-05-18T02:19:43.431Z,97448.88
2023-05-18T02:20:49.376Z,97446.25
2023-05-18T02:21:51.533Z,97445.84
2023-05-18T02:22:53.547Z,97454.63
2023-05-18T02:23:55.502Z,97450.38
2023-05-18T02:24:57.508Z,97448.78
2023-05-18T02:25:59.579Z,97447.16
2023-05-18T02:27:01.770Z,97443.13
2023-05-18T02:28:03.660Z,97449.50
2023-05-18T02:29:12.139Z,97449.69
2023-05-18T02:30:16.065Z,97444.47
2023-05-18T02:31:18.367Z,97449.34
2023-05-18T02:32:20.589Z,97447.34
2023-05-18T02:33:26.729Z,97442.78
2023-05-18T02:34:32.729Z,97446.97
2023-05-18T02:35:34.696Z,97442.22
2023-05-18T02:36:42.962Z,97448.25
2023-05-18T02:37:44.838Z,97447.28
2023-05-18T02:38:46.825Z,97441.25
2023-05-18T02:39:48.917Z,97445.47
2023-05-18T02:40:51.014Z,97445.47
2023-05-18T02:41:52.982Z,97444.66
2023-05-18T02:42:54.870Z,97443.66
2023-05-18T02:43:56.882Z,97450.66
2023-05-18T02:44:59.017Z,97451.84
2023-05-18T02:46:00.954Z,97454.00
2023-05-18T02:47:02.824Z,97450.75
2023-05-18T02:48:04.792Z,97446.72
2023-05-18T02:49:07.289Z,97454.88
2023-05-18T02:50:09.371Z,97450.69
2023-05-18T02:51:11.318Z,97454.09
2023-05-18T02:52:13.206Z,97452.44
2023-05-18T02:53:15.160Z,97449.22
2023-05-18T02:54:17.039Z,97451.03
2023-05-18T02:55:19.610Z,97453.63
2023-05-18T02:56:21.603Z,97455.25
2023-05-18T02:57:23.481Z,97452.28
2023-05-18T02:58:25.950Z,97458.13
2023-05-18T02:59:27.789Z,97456.13
2023-05-18T03:00:30.977Z,97451.38
2023-05-18T03:01:35.058Z,97453.00
2023-05-18T03:02:39.135Z,97462.59
2023-05-18T03:03:42.724Z,97462.44
2023-05-18T03:04:44.646Z,97459.84
2023-05-18T03:05:46.565Z,97459.84
2023-05-18T03:06:53.280Z,97456.25
2023-05-18T03:07:55.170Z,97464.69
2023-05-18T03:08:57.461Z,97460.13
2023-05-18T03:09:59.370Z,97456.69
2023-05-18T03:11:01.446Z,97458.31
2023-05-18T03:12:03.339Z,97457.50
2023-05-18T03:13:05.733Z,97463.69
2023-05-18T03:14:07.637Z,97461.09
2023-05-18T03:15:09.922Z,97459.13
2023-05-18T03:16:11.882Z,97465.94
2023-05-18T03:17:14.077Z,97464.94
2023-05-18T03:18:16.188Z,97454.72
2023-05-18T03:19:18.216Z,97462.72
2023-05-18T03:20:20.235Z,97458.50
2023-05-18T03:21:22.287Z,97461.25
2023-05-18T03:22:24.148Z,97465.22
2023-05-18T03:23:27.462Z,97464.75
2023-05-18T03:24:30.593Z,97460.53
2023-05-18T03:25:33.198Z,97458.13
2023-05-18T03:26:35.324Z,97464.13
2023-05-18T03:27:38.311Z,97466.56
2023-05-18T03:28:40.214Z,97459.75
2023-05-18T03:29:42.189Z,97456.94
2023-05-18T03:30:44.085Z,97455.78
2023-05-18T03:31:46.056Z,97459.19
2023-05-18T03:32:48.682Z,97458.56
2023-05-18T03:33:50.620Z,97462.53
2023-05-18T03:34:53.292Z,97467.91
2023-05-18T03:35:55.211Z,97462.44
2023-05-18T03:36:58.511Z,97462.06
2023-05-18T03:38:00.433Z,97466.09
2023-05-18T03:39:02.533Z,97462.53
2023-05-18T03:40:14.970Z,97457.78
2023-05-18T03:41:16.864Z,97461.81
2023-05-18T03:42:18.896Z,97462.59
2023-05-18T03:43:20.876Z,97470.25
2023-05-18T03:44:22.812Z,97466.84
2023-05-18T03:45:24.711Z,97471.03
2023-05-18T03:46:26.914Z,97472.06
2023-05-18T03:47:30.252Z,97466.00
2023-05-18T03:48:32.151Z,97467.00
2023-05-18T03:49:34.791Z,97467.00
2023-05-18T03:50:37.255Z,97470.41
2023-05-18T03:51:39.310Z,97470.97
2023-05-18T03:52:42.072Z,97467.09
2023-05-18T03:53:44.254Z,97467.91
2023-05-18T03:54:46.157Z,97471.13
2023-05-18T03:55:49.861Z,97476.16
2023-05-18T03:56:51.796Z,97470.78
2023-05-18T03:57:54.379Z,97466.22
2023-05-18T03:58:56.249Z,97473.03
2023-05-18T03:59:58.445Z,97469.44
2023-05-18T04:01:01.242Z,97467.81
2023-05-18T04:02:03.378Z,97469.97
2023-05-18T04:03:05.415Z,97472.66
2023-05-18T04:04:07.682Z,97471.84
2023-05-18T04:05:10.394Z,97473.28
2023-05-18T04:06:12.249Z,97470.34
2023-05-18T04:07:16.890Z,97470.34
2023-05-18T04:08:18.955Z,97478.13
2023-05-18T04:09:22.101Z,97464.94
2023-05-18T04:10:24.035Z,97480.91
2023-05-18T04:11:26.342Z,97476.50
2023-05-18T04:12:28.238Z,97470.16
2023-05-18T04:13:30.168Z,97474.38
2023-05-18T04:14:35.635Z,97470.59
2023-05-18T04:15:37.551Z,97468.63
2023-05-18T04:16:39.470Z,97473.19
2023-05-18T04:17:46.286Z,97477.78
2023-05-18T04:18:48.761Z,97484.25
2023-05-18T04:19:50.926Z,97470.41
2023-05-18T04:20:53.029Z,97480.66
2023-05-18T04:21:54.960Z,97472.22
2023-05-18T04:22:58.034Z,97474.19
2023-05-18T04:24:00.767Z,97474.19
2023-05-18T04:25:03.532Z,97468.34
2023-05-18T04:26:06.568Z,97472.94
2023-05-18T04:27:10.779Z,97473.91
2023-05-18T04:28:12.608Z,97474.53
2023-05-18T04:29:14.560Z,97473.56
2023-05-18T04:30:19.172Z,97474.53
2023-05-18T04:31:22.345Z,97475.53
2023-05-18T04:32:28.640Z,97469.69
2023-05-18T04:33:30.760Z,97473.28
2023-05-18T04:34:34.153Z,97470.03
2023-05-18T04:35:36.255Z,97469.59
2023-05-18T04:36:41.246Z,97473.00
2023-05-18T04:37:43.400Z,97471.03
2023-05-18T04:38:45.301Z,97476.88
2023-05-18T04:39:47.899Z,97472.31
2023-05-18T04:40:50.698Z,97474.53
2023-05-18T04:42:01.501Z,97477.59
2023-05-18T04:43:04.375Z,97479.03
2023-05-18T04:44:06.386Z,97477.25
2023-05-18T04:45:08.524Z,97480.66
2023-05-18T04:46:10.553Z,97479.50
2023-05-18T04:47:12.422Z,97483.56
2023-05-18T04:48:14.817Z,97477.97
2023-05-18T04:49:16.701Z,97476.00
2023-05-18T04:50:18.812Z,97476.63
2023-05-18T04:51:21.951Z,97482.47
2023-05-18T04:52:23.896Z,97481.28
2023-05-18T04:53:27.772Z,97477.88
2023-05-18T04:54:33.165Z,97476.91
2023-05-18T04:55:35.656Z,97479.31
2023-05-18T04:56:37.701Z,97480.13
2023-05-18T04:57:39.697Z,97483.72
2023-05-18T04:58:42.009Z,97477.88
2023-05-18T04:59:47.632Z,97474.41
2023-05-18T05:00:49.526Z,97480.94
2023-05-18T05:01:51.695Z,97481.91
2023-05-18T05:02:53.929Z,97477.88
2023-05-18T05:03:58.942Z,97476.63
2023-05-18T05:05:01.840Z,97480.03
2023-05-18T05:06:03.939Z,97478.41
2023-05-18T05:07:05.902Z,97473.81
2023-05-18T05:08:07.812Z,97481.47
2023-05-18T05:09:09.719Z,97476.25
2023-05-18T05:10:11.687Z,97484.06
2023-05-18T05:11:13.697Z,97477.09
2023-05-18T05:12:16.058Z,97482.09
2023-05-18T05:13:17.996Z,97481.91
2023-05-18T05:14:19.884Z,97483.91
2023-05-18T05:15:21.818Z,97485.88
2023-05-18T05:16:23.822Z,97486.22
2023-05-18T05:17:25.940Z,97488.56
2023-05-18T05:18:27.836Z,97486.91
2023-05-18T05:19:29.766Z,97488.56
2023-05-18T05:20:34.902Z,97492.75
2023-05-18T05:21:36.926Z,97487.38
2023-05-18T05:22:39.049Z,97492.59
2023-05-18T05:23:41.601Z,97490.97
2023-05-18T05:24:43.477Z,97495.19
2023-05-18T05:25:45.441Z,97490.97
2023-05-18T05:26:47.436Z,97495.03
2023-05-18T05:27:49.314Z,97486.56
2023-05-18T05:28:51.294Z,97497.16
2023-05-18T05:29:53.272Z,97499.59
2023-05-18T05:30:55.207Z,97493.22
2023-05-18T05:31:57.388Z,97493.03
2023-05-18T05:32:59.501Z,97500.69
2023-05-18T05:34:01.376Z,97496.28
2023-05-18T05:35:03.692Z,97499.69
2023-05-18T05:36:05.744Z,97494.31
2023-05-18T05:37:07.712Z,97499.97
2023-05-18T05:38:09.855Z,97492.97
2023-05-18T05:39:12.121Z,97505.97
2023-05-18T05:40:14.101Z,97500.94
2023-05-18T05:41:16.199Z,97498.34
2023-05-18T05:42:18.203Z,97500.94
2023-05-18T05:43:20.129Z,97499.19
2023-05-18T05:44:22.557Z,97499.34
2023-05-18T05:45:24.484Z,97496.91
2023-05-18T05:46:26.600Z,97505.72
2023-05-18T05:47:28.659Z,97506.34
2023-05-18T05:48:30.722Z,97500.16
2023-05-18T05:49:32.611Z,97502.75
2023-05-18T05:50:34.601Z,97500.94
2023-05-18T05:51:36.546Z,97505.34
2023-05-18T05:52:38.462Z,97497.53
2023-05-18T05:53:41.382Z,97497.38
2023-05-18T05:54:43.488Z,97500.78
2023-05-18T05:55:45.753Z,97505.63
2023-05-18T05:56:47.730Z,97500.06
2023-05-18T05:57:49.788Z,97498.25
2023-05-18T05:58:52.216Z,97494.84
2023-05-18T05:59:54.122Z,97498.47
2023-05-18T06:00:56.069Z,97498.63
2023-05-18T06:01:58.173Z,97496.56
2023-05-18T06:03:00.679Z,97495.41
2023-05-18T06:04:04.755Z,97504.00
2023-05-18T06:05:07.637Z,97501.22
2023-05-18T06:06:09.636Z,97502.22
2023-05-18T06:07:11.718Z,97505.63
2023-05-18T06:08:13.715Z,97510.03
2023-05-18T06:09:16.353Z,97509.38
2023-05-18T06:10:18.303Z,97503.56
2023-05-18T06:11:20.265Z,97501.94
2023-05-18T06:12:22.183Z,97503.22
2023-05-18T06:13:24.060Z,97499.25
2023-05-18T06:14:26.377Z,97501.31
2023-05-18T06:15:28.468Z,97501.78
2023-05-18T06:16:30.590Z,97509.41
2023-05-18T06:17:32.552Z,97508.41
2023-05-18T06:18:35.347Z,97506.63
2023-05-18T06:19:37.361Z,97507.44
2023-05-18T06:20:39.586Z,97501.84
2023-05-18T06:21:41.549Z,97505.91
2023-05-18T06:22:44.224Z,97507.88
2023-05-18T06:23:46.285Z,97509.50
2023-05-18T06:24:48.335Z,97512.28
2023-05-18T06:25:50.477Z,97517.50
2023-05-18T06:26:52.409Z,97513.06
2023-05-18T06:27:54.343Z,97506.09
2023-05-18T06:28:56.283Z,97509.84
2023-05-18T06:29:58.419Z,97513.06
2023-05-18T06:31:00.462Z,97507.69
2023-05-18T06:32:02.558Z,97509.97
2023-05-18T06:33:04.883Z,97508.16
2023-05-18T06:34:06.913Z,97507.97
2023-05-18T06:35:09.063Z,97512.19
2023-05-18T06:36:10.936Z,97512.03
2023-05-18T06:37:12.985Z,97511.47
2023-05-18T06:38:15.035Z,97514.28
2023-05-18T06:39:17.058Z,97506.25
2023-05-18T06:40:19.001Z,97510.50
2023-05-18T06:41:21.011Z,97509.31
2023-05-18T06:42:23.084Z,97515.31
2023-05-18T06:43:28.772Z,97516.97
2023-05-18T06:44:30.847Z,97512.72
2023-05-18T06:45:35.367Z,97510.94
2023-05-18T06:46:39.013Z,97508.13
2023-05-18T06:47:41.191Z,97508.34
2023-05-18T06:48:45.281Z,97514.91
2023-05-18T06:49:47.181Z,97513.72
2023-05-18T06:50:49.185Z,97521.38
2023-05-18T06:51:51.332Z,97516.97
2023-05-18T06:52:53.666Z,97519.56
2023-05-18T06:53:55.622Z,97515.97
2023-05-18T06:54:57.864Z,97525.03
2023-05-18T06:55:59.875Z,97520.28
2023-05-18T06:57:01.917Z,97522.06
2023-05-18T06:58:03.769Z,97523.06
2023-05-18T06:59:05.789Z,97520.44
2023-05-18T07:00:12.707Z,97518.47
2023-05-18T07:01:14.675Z,97520.09
2023-05-18T07:02:16.648Z,97510.47
2023-05-18T07:03:18.916Z,97521.53
2023-05-18T07:04:20.947Z,97516.06
2023-05-18T07:05:23.624Z,97526.28
2023-05-18T07:06:25.931Z,97525.47
2023-05-18T07:07:27.944Z,97526.91
2023-05-18T07:08:29.951Z,97525.94
2023-05-18T07:09:32.036Z,97525.94
2023-05-18T07:10:35.719Z,97521.69
2023-05-18T07:11:37.786Z,97522.72
2023-05-18T07:12:39.764Z,97526.91
2023-05-18T07:13:41.742Z,97525.13
2023-05-18T07:14:45.326Z,97518.91
2023-05-18T07:15:47.461Z,97525.13
2023-05-18T07:16:49.422Z,97526.91
2023-05-18T07:17:51.310Z,97532.97
2023-05-18T07:18:53.367Z,97525.94
2023-05-18T07:19:55.277Z,97524.31
2023-05-18T07:20:57.212Z,97526.03
2023-05-18T07:21:59.887Z,97524.78
2023-05-18T07:23:01.810Z,97532.22
2023-05-18T07:24:03.857Z,97527.00
2023-05-18T07:25:06.028Z,97525.03
2023-05-18T07:26:10.354Z,97526.03
2023-05-18T07:27:12.377Z,97526.66
2023-05-18T07:28:14.365Z,97526.50
2023-05-18T07:29:16.302Z,97526.28
2023-05-18T07:30:18.469Z,97531.50
2023-05-18T07:31:21.996Z,97529.53
2023-05-18T07:32:24.072Z,97532.13
2023-05-18T07:33:26.028Z,97528.38
2023-05-18T07:34:27.965Z,97531.41
2023-05-18T07:35:30.094Z,97524.22
2023-05-18T07:36:32.070Z,97532.69
2023-05-18T07:37:34.029Z,97526.47
2023-05-18T07:38:35.969Z,97526.13
2023-05-18T07:39:39.198Z,97524.03
2023-05-18T07:40:41.706Z,97528.00
2023-05-18T07:41:43.533Z,97527.81
2023-05-18T07:42:45.607Z,97529.88
2023-05-18T07:43:47.686Z,97531.34
2023-05-18T07:44:49.575Z,97524.94
2023-05-18T07:45:51.512Z,97526.13
2023-05-18T07:46:53.545Z,97519.72
2023-05-18T07:47:55.726Z,97518.53
2023-05-18T07:48:57.816Z,97519.97
2023-05-18T07:49:59.706Z,97524.84
2023-05-18T07:51:01.638Z,97522.84
2023-05-18T07:52:03.953Z,97524.91
2023-05-18T07:53:05.914Z,97527.97
2023-05-18T07:54:07.823Z,97524.56
2023-05-18T07:55:09.756Z,97523.94
2023-05-18T07:56:11.821Z,97527.50
2023-05-18T07:57:13.766Z,97525.91
2023-05-18T07:58:16.333Z,97530.28
2023-05-18T07:59:18.242Z,97523.94
2023-05-18T08:00:20.696Z,97527.78
2023-05-18T08:01:27.772Z,97526.94
2023-05-18T08:02:31.321Z,97525.19
2023-05-18T08:03:34.876Z,97525.19
2023-05-18T08:04:37.037Z,97524.16
2023-05-18T08:05:39.160Z,97527.78
2023-05-18T08:06:41.036Z,97525.97
2023-05-18T08:07:43.063Z,97528.75
2023-05-18T08:08:45.011Z,97528.59
2023-05-18T08:09:46.977Z,97526.78
2023-05-18T08:10:48.917Z,97529.22
2023-05-18T08:11:51.891Z,97525.81
2023-05-18T08:12:53.851Z,97529.22
2023-05-18T08:13:55.738Z,97530.00
2023-05-18T08:14:57.656Z,97529.22
2023-05-18T08:16:11.176Z,97532.16
2023-05-18T08:17:14.038Z,97530.38
2023-05-18T08:18:16.202Z,97531.38
2023-05-18T08:19:18.177Z,97540.38
2023-05-18T08:20:20.192Z,97536.13
2023-05-18T08:21:22.060Z,97537.59
2023-05-18T08:22:23.988Z,97537.38
2023-05-18T08:23:25.953Z,97540.63
2023-05-18T08:24:27.961Z,97541.44
2023-05-18T08:25:30.226Z,97535.97
2023-05-18T08:26:32.306Z,97539.56
2023-05-18T08:27:34.228Z,97535.72
2023-05-18T08:28:36.031Z,97534.72
2023-05-18T08:29:38.048Z,97543.31
2023-05-18T08:30:39.981Z,97539.56
2023-05-18T08:31:42.006Z,97538.31
2023-05-18T08:32:43.929Z,97543.53
2023-05-18T08:33:45.821Z,97536.69
2023-05-18T08:34:48.422Z,97542.53
2023-05-18T08:35:50.443Z,97534.72
2023-05-18T08:36:52.827Z,97545.94
2023-05-18T08:37:55.273Z,97540.53
2023-05-18T08:38:57.252Z,97543.94
2023-05-18T08:40:00.050Z,97545.41
2023-05-18T08:41:02.093Z,97547.81
2023-05-18T08:42:22.767Z,97548.66
2023-05-18T08:43:30.029Z,97547.00
2023-05-18T08:44:40.581Z,97545.59
2023-05-18T08:45:50.683Z,97550.19
2023-05-18T08:46:53.344Z,97552.41
2023-05-18T08:47:57.774Z,97548.03
2023-05-18T08:49:01.183Z,97547.00
2023-05-18T08:50:04.082Z,97545.59
2023-05-18T08:51:07.081Z,97545.84
2023-05-18T08:52:09.581Z,97545.47
2023-05-18T08:53:13.955Z,97545.31
2023-05-18T08:54:19.989Z,97545.75
2023-05-18T08:55:23.471Z,97549.16
2023-05-18T08:56:26.795Z,97548.53
2023-05-18T08:57:30.972Z,97550.13
2023-05-18T08:58:35.861Z,97547.28
2023-05-18T08:59:41.885Z,97542.06
2023-05-18T09:00:43.872Z,97549.28
2023-05-18T09:01:47.293Z,97539.63
2023-05-18T09:02:49.545Z,97547.19
2023-05-18T09:03:51.413Z,97546.22
2023-05-18T09:04:54.957Z,97544.06
2023-05-18T09:05:58.895Z,97546.47
2023-05-18T09:07:03.355Z,97546.91
2023-05-18T09:08:06.593Z,97535.66
2023-05-18T09:09:09.936Z,97540.88
2023-05-18T09:10:13.903Z,97536.47
2023-05-18T09:11:16.787Z,97539.28
2023-05-18T09:12:19.547Z,97540.72
2023-05-18T09:13:21.957Z,97540.09
2023-05-18T09:14:26.201Z,97542.69
2023-05-18T09:15:29.157Z,97543.94
2023-05-18T09:16:31.625Z,97540.34
2023-05-18T09:17:33.615Z,97542.31
2023-05-18T09:18:35.814Z,97541.50
2023-05-18T09:19:37.853Z,97550.13
2023-05-18T09:20:39.847Z,97543.31
2023-05-18T09:21:41.765Z,97542.94
2023-05-18T09:22:44.015Z,97539.63
2023-05-18T09:23:46.138Z,97547.91
2023-05-18T09:24:49.245Z,97544.31
2023-05-18T09:25:52.965Z,97545.13
2023-05-18T09:26:57.156Z,97543.06
2023-05-18T09:27:59.153Z,97546.09
2023-05-18T09:29:01.676Z,97549.31
2023-05-18T09:30:05.198Z,97549.72
2023-05-18T09:31:09.316Z,97547.72
2023-05-18T09:32:11.406Z,97550.34
2023-05-18T09:33:22.102Z,97545.91
2023-05-18T09:34:24.887Z,97545.28
2023-05-18T09:35:27.015Z,97550.16
2023-05-18T09:36:29.886Z,97542.75
2023-05-18T09:37:32.062Z,97545.34
2023-05-18T09:38:44.238Z,97550.88
2023-05-18T09:39:46.800Z,97548.97
2023-05-18T09:40:49.585Z,97542.31
2023-05-18T09:42:03.004Z,97545.94
2023-05-18T09:43:07.672Z,97544.56
2023-05-18T09:44:10.029Z,97536.47
2023-05-18T09:45:19.592Z,97536.13
2023-05-18T09:46:22.391Z,97544.19
2023-05-18T09:47:24.433Z,97533.44
2023-05-18T09:48:26.736Z,97545.13
2023-05-18T09:49:31.858Z,97538.53
2023-05-18T09:50:33.839Z,97537.53
2023-05-18T09:51:39.396Z,97537.53
2023-05-18T09:52:44.277Z,97543.81
2023-05-18T09:53:58.798Z,97537.63
2023-05-18T09:55:04.902Z,97539.41
2023-05-18T09:56:09.734Z,97537.41
2023-05-18T09:57:11.774Z,97541.28
2023-05-18T09:58:13.764Z,97543.47
2023-05-18T09:59:16.339Z,97534.00
2023-05-18T10:00:20.085Z,97533.38
2023-05-18T10:01:22.687Z,97534.13
2023-05-18T10:02:26.312Z,97534.75
2023-05-18T10:03:32.429Z,97539.97
2023-05-18T10:04:44.330Z,97537.97
2023-05-18T10:05:46.481Z,97539.59
2023-05-18T10:06:51.658Z,97541.78
2023-05-18T10:07:57.788Z,97533.94
2023-05-18T10:09:02.157Z,97534.84
2023-05-18T10:10:05.409Z,97535.03
2023-05-18T10:11:08.566Z,97545.69
2023-05-18T10:12:14.009Z,97540.59
2023-05-18T10:13:19.806Z,97538.97
2023-05-18T10:14:30.539Z,97536.66
2023-05-18T10:15:33.767Z,97537.72
2023-05-18T10:16:35.849Z,97539.97
2023-05-18T10:17:43.419Z,97536.00
2023-05-18T10:18:46.473Z,97539.59
2023-05-18T10:19:53.360Z,97540.03
2023-05-18T10:20:59.172Z,97542.44
2023-05-18T10:22:06.451Z,97537.69
2023-05-18T10:23:10.091Z,97532.72
2023-05-18T10:24:12.850Z,97532.50
2023-05-18T10:25:18.986Z,97532.50
2023-05-18T10:26:23.280Z,97537.38
2023-05-18T10:27:28.470Z,97532.59
2023-05-18T10:28:42.194Z,97539.59
2023-05-18T10:29:44.868Z,97544.13
2023-05-18T10:30:47.924Z,97538.28
2023-05-18T10:31:51.031Z,97535.34
2023-05-18T10:32:54.397Z,97534.94
2023-05-18T10:33:56.369Z,97535.75
2023-05-18T10:35:00.110Z,97536.75
2023-05-18T10:36:03.111Z,97536.56
2023-05-18T10:37:05.743Z,97532.97
2023-05-18T10:38:08.523Z,97541.03
2023-05-18T10:39:10.682Z,97538.22
2023-05-18T10:40:13.901Z,97536.25
2023-05-18T10:41:17.936Z,97542.53
2023-05-18T10:42:20.900Z,97537.91
2023-05-18T10:43:30.243Z,97541.53
2023-05-18T10:44:32.491Z,97532.09
2023-05-18T10:45:35.721Z,97534.31
2023-05-18T10:46:38.623Z,97543.41
2023-05-18T10:47:42.896Z,97537.56
2023-05-18T10:48:48.713Z,97542.41
2023-05-18T10:49:50.708Z,97536.19
2023-05-18T10:50:53.557Z,97542.41
2023-05-18T10:51:56.239Z,97538.81
2023-05-18T10:52:59.611Z,97542.03
2023-05-18T10:54:11.277Z,97538.41
2023-05-18T10:55:13.468Z,97545.09
2023-05-18T10:56:18.424Z,97543.84
2023-05-18T10:57:21.043Z,97540.16
2023-05-18T10:58:25.563Z,97542.41
2023-05-18T10:59:27.965Z,97537.78
2023-05-18T11:00:32.140Z,97536.63
2023-05-18T11:01:34.758Z,97541.63
2023-05-18T11:02:40.441Z,97541.09
2023-05-18T11:03:42.540Z,97539.88
2023-05-18T11:04:46.188Z,97538.81
2023-05-18T11:05:52.480Z,97540.41
2023-05-18T11:06:55.288Z,97537.78
2023-05-18T11:08:03.627Z,97540.63
2023-05-18T11:09:06.397Z,97538.00
2023-05-18T11:10:09.549Z,97544.03
2023-05-18T11:11:11.496Z,97537.25
2023-05-18T11:12:14.389Z,97537.66
2023-05-18T11:13:16.398Z,97529.66
2023-05-18T11:14:25.175Z,97531.69
2023-05-18T11:15:46.975Z,97527.66
2023-05-18T11:16:49.140Z,97538.53
2023-05-18T11:18:12.188Z,97533.94
2023-05-18T11:19:14.589Z,97531.75
2023-05-18T11:20:17.406Z,97535.31
2023-05-18T11:21:20.011Z,97529.28
2023-05-18T11:22:21.930Z,97527.22
2023-05-18T11:23:24.232Z,97527.97
2023-05-18T11:24:36.953Z,97530.22
2023-05-18T11:25:39.583Z,97528.66
2023-05-18T11:26:41.588Z,97533.31
2023-05-18T11:27:43.582Z,97534.28
2023-05-18T11:28:49.491Z,97533.66
2023-05-18T11:29:57.745Z,97531.69
2023-05-18T11:31:18.130Z,97529.28
2023-05-18T11:32:30.591Z,97528.22
2023-05-18T11:33:33.132Z,97531.63
2023-05-18T11:34:39.432Z,97527.66
2023-05-18T11:35:57.054Z,97532.50
2023-05-18T11:36:58.918Z,97530.31
2023-05-18T11:38:08.691Z,97534.91
2023-05-18T11:39:11.667Z,97529.69
2023-05-18T11:40:33.552Z,97531.69
2023-05-18T11:41:35.742Z,97528.84
2023-05-18T11:42:37.880Z,97534.44
2023-05-18T11:43:39.783Z,97532.66
2023-05-18T11:44:41.795Z,97533.06
2023-05-18T11:45:54.045Z,97525.66
2023-05-18T11:46:59.271Z,97530.88
2023-05-18T11:48:02.429Z,97536.53
2023-05-18T11:49:05.085Z,97534.28
2023-05-18T11:50:08.744Z,97532.50
2023-05-18T11:51:12.128Z,97534.88
2023-05-18T11:52:16.548Z,97541.47
2023-05-18T11:53:18.993Z,97535.44
2023-05-18T11:54:23.296Z,97528.84
2023-05-18T11:55:37.390Z,97534.69
2023-05-18T11:56:41.632Z,97536.50
2023-05-18T11:57:46.086Z,97532.44
2023-05-18T11:59:07.854Z,97537.63
2023-05-18T12:00:15.546Z,97531.94
2023-05-18T12:01:17.922Z,97537.16
2023-05-18T12:02:22.183Z,97536.13
2023-05-18T12:03:26.112Z,97535.13
2023-05-18T12:04:29.151Z,97534.56
2023-05-18T12:05:31.054Z,97539.25
2023-05-18T12:06:33.591Z,97538.06
2023-05-18T12:07:36.771Z,97542.06
2023-05-18T12:08:44.240Z,97544.06
2023-05-18T12:09:47.403Z,97534.19
2023-05-18T12:10:49.894Z,97535.19
2023-05-18T12:11:52.252Z,97536.81
2023-05-18T12:12:54.299Z,97538.63
2023-05-18T12:13:56.780Z,97540.41
2023-05-18T12:14:59.426Z,97538.00
2023-05-18T12:16:02.071Z,97536.00
2023-05-18T12:17:04.472Z,97535.63
2023-05-18T12:18:06.751Z,97543.88
2023-05-18T12:19:08.865Z,97538.50
2023-05-18T12:20:12.284Z,97541.91
2023-05-18T12:21:14.482Z,97540.88
2023-05-18T12:22:16.610Z,97547.75
2023-05-18T12:23:18.724Z,97541.28
2023-05-18T12:24:21.350Z,97542.47